sensor_id;sensor_type;location;lat;lon;timestamp;temperature;humidity
25482;DHT22;13395;50.752;4.268;2022-10-26T00:00:43;14.70;99.90
25482;DHT22;13395;50.752;4.268;2022-10-26T00:03:08;14.70;99.90
25482;DHT22;13395;50.752;4.268;2022-10-26T00:05:34;14.90;99.90
25482;DHT22;13395;50.752;4.268;2022-10-26T00:08:00;14.90;99.90
25482;DHT22;13395;50.752;4.268;2022-10-26T00:10:25;14.90;99.90
25482;DHT22;13395;50.752;4.268;2022-10-26T00:12:51;14.90;99.90
25482;DHT22;13395;50.752;4.268;2022-10-26T00:15:17;14.90;99.90
25482;DHT22;13395;50.752;4.268;2022-10-26T00:17:43;15.00;99.90
25482;DHT22;13395;50.752;4.268;2022-10-26T00:20:08;15.00;99.90
25482;DHT22;13395;50.752;4.268;2022-10-26T00:22:34;15.00;99.90
25482;DHT22;13395;50.752;4.268;2022-10-26T00:24:59;14.90;99.90
25482;DHT22;13395;50.752;4.268;2022-10-26T00:27:25;14.90;99.90
25482;DHT22;13395;50.752;4.268;2022-10-26T00:29:50;15.00;99.90
25482;DHT22;13395;50.752;4.268;2022-10-26T00:32:16;15.10;99.90
25482;DHT22;13395;50.752;4.268;2022-10-26T00:34:41;15.00;99.90
25482;DHT22;13395;50.752;4.268;2022-10-26T00:37:07;15.00;99.90
25482;DHT22;13395;50.752;4.268;2022-10-26T00:39:33;14.90;99.90
25482;DHT22;13395;50.752;4.268;2022-10-26T00:41:59;14.90;99.90
25482;DHT22;13395;50.752;4.268;2022-10-26T00:44:53;15.00;99.90
25482;DHT22;13395;50.752;4.268;2022-10-26T00:49:54;14.90;99.90
25482;DHT22;13395;50.752;4.268;2022-10-26T00:52:21;15.00;99.90
25482;DHT22;13395;50.752;4.268;2022-10-26T00:54:47;15.00;99.90
25482;DHT22;13395;50.752;4.268;2022-10-26T00:57:13;15.00;99.90
25482;DHT22;13395;50.752;4.268;2022-10-26T00:59:39;15.00;99.90
25482;DHT22;13395;50.752;4.268;2022-10-26T01:02:05;15.00;99.90
25482;DHT22;13395;50.752;4.268;2022-10-26T01:04:31;14.90;99.90
25482;DHT22;13395;50.752;4.268;2022-10-26T01:06:57;15.00;99.90
25482;DHT22;13395;50.752;4.268;2022-10-26T01:09:23;15.00;99.90
25482;DHT22;13395;50.752;4.268;2022-10-26T01:11:49;15.00;99.90
25482;DHT22;13395;50.752;4.268;2022-10-26T01:14:15;15.00;99.90
25482;DHT22;13395;50.752;4.268;2022-10-26T01:19:44;15.10;99.90
25482;DHT22;13395;50.752;4.268;2022-10-26T01:22:21;15.00;99.90
25482;DHT22;13395;50.752;4.268;2022-10-26T01:37:54;15.00;99.90
25482;DHT22;13395;50.752;4.268;2022-10-26T01:40:23;15.00;99.90
25482;DHT22;13395;50.752;4.268;2022-10-26T01:42:50;15.00;99.90
25482;DHT22;13395;50.752;4.268;2022-10-26T01:45:18;15.10;99.90
25482;DHT22;13395;50.752;4.268;2022-10-26T01:47:43;15.30;99.90
25482;DHT22;13395;50.752;4.268;2022-10-26T01:50:10;15.30;99.90
25482;DHT22;13395;50.752;4.268;2022-10-26T01:52:35;15.30;99.90
25482;DHT22;13395;50.752;4.268;2022-10-26T01:55:02;15.40;99.90
25482;DHT22;13395;50.752;4.268;2022-10-26T01:57:27;15.50;99.90
25482;DHT22;13395;50.752;4.268;2022-10-26T02:00:08;15.50;99.90
25482;DHT22;13395;50.752;4.268;2022-10-26T02:07:54;15.70;99.90
25482;DHT22;13395;50.752;4.268;2022-10-26T02:15:53;15.80;99.90
25482;DHT22;13395;50.752;4.268;2022-10-26T02:18:29;15.80;99.90
25482;DHT22;13395;50.752;4.268;2022-10-26T02:20:58;15.90;99.90
25482;DHT22;13395;50.752;4.268;2022-10-26T02:23:25;15.90;99.90
25482;DHT22;13395;50.752;4.268;2022-10-26T02:25:54;16.00;99.90
25482;DHT22;13395;50.752;4.268;2022-10-26T02:28:22;16.10;99.90
25482;DHT22;13395;50.752;4.268;2022-10-26T02:30:49;16.10;99.90
25482;DHT22;13395;50.752;4.268;2022-10-26T02:33:17;16.10;99.90
25482;DHT22;13395;50.752;4.268;2022-10-26T02:35:44;16.00;99.90
25482;DHT22;13395;50.752;4.268;2022-10-26T02:38:11;16.10;99.90
25482;DHT22;13395;50.752;4.268;2022-10-26T02:40:37;16.00;99.90
25482;DHT22;13395;50.752;4.268;2022-10-26T02:43:04;16.00;99.90
25482;DHT22;13395;50.752;4.268;2022-10-26T02:45:33;16.00;99.90
25482;DHT22;13395;50.752;4.268;2022-10-26T02:48:01;16.00;99.90
25482;DHT22;13395;50.752;4.268;2022-10-26T02:50:35;16.00;99.90
25482;DHT22;13395;50.752;4.268;2022-10-26T02:55:35;15.90;99.90
25482;DHT22;13395;50.752;4.268;2022-10-26T02:58:10;15.90;99.90
25482;DHT22;13395;50.752;4.268;2022-10-26T03:00:37;15.90;99.90
25482;DHT22;13395;50.752;4.268;2022-10-26T03:03:03;15.90;99.90
25482;DHT22;13395;50.752;4.268;2022-10-26T03:05:32;15.90;99.90
25482;DHT22;13395;50.752;4.268;2022-10-26T03:07:57;16.00;99.90
25482;DHT22;13395;50.752;4.268;2022-10-26T03:10:23;16.00;99.90
25482;DHT22;13395;50.752;4.268;2022-10-26T03:12:49;16.00;99.90
25482;DHT22;13395;50.752;4.268;2022-10-26T03:15:14;16.00;99.90
25482;DHT22;13395;50.752;4.268;2022-10-26T03:17:40;16.00;99.90
25482;DHT22;13395;50.752;4.268;2022-10-26T03:20:06;16.10;99.90
25482;DHT22;13395;50.752;4.268;2022-10-26T03:22:31;16.10;99.90
25482;DHT22;13395;50.752;4.268;2022-10-26T03:24:57;16.10;99.90
25482;DHT22;13395;50.752;4.268;2022-10-26T03:27:22;16.00;99.90
25482;DHT22;13395;50.752;4.268;2022-10-26T03:29:48;16.20;99.90
25482;DHT22;13395;50.752;4.268;2022-10-26T03:32:14;16.30;99.90
25482;DHT22;13395;50.752;4.268;2022-10-26T03:34:39;16.20;99.90
25482;DHT22;13395;50.752;4.268;2022-10-26T03:37:05;16.30;99.90
25482;DHT22;13395;50.752;4.268;2022-10-26T03:39:30;16.20;99.90
25482;DHT22;13395;50.752;4.268;2022-10-26T03:41:56;16.20;99.90
25482;DHT22;13395;50.752;4.268;2022-10-26T03:44:21;16.30;99.90
25482;DHT22;13395;50.752;4.268;2022-10-26T03:46:47;16.20;99.90
25482;DHT22;13395;50.752;4.268;2022-10-26T03:49:12;16.30;99.90
25482;DHT22;13395;50.752;4.268;2022-10-26T03:51:39;16.30;99.90
25482;DHT22;13395;50.752;4.268;2022-10-26T03:54:05;16.30;99.90
25482;DHT22;13395;50.752;4.268;2022-10-26T03:56:30;16.50;99.90
25482;DHT22;13395;50.752;4.268;2022-10-26T03:58:56;16.50;99.90
25482;DHT22;13395;50.752;4.268;2022-10-26T04:01:21;16.50;99.90
25482;DHT22;13395;50.752;4.268;2022-10-26T04:03:47;16.40;99.90
25482;DHT22;13395;50.752;4.268;2022-10-26T04:06:12;16.40;99.90
25482;DHT22;13395;50.752;4.268;2022-10-26T04:08:38;16.30;99.90
25482;DHT22;13395;50.752;4.268;2022-10-26T04:11:04;16.20;99.90
25482;DHT22;13395;50.752;4.268;2022-10-26T04:13:29;16.10;99.90
25482;DHT22;13395;50.752;4.268;2022-10-26T04:15:55;16.00;99.90
25482;DHT22;13395;50.752;4.268;2022-10-26T04:18:20;15.90;99.90
25482;DHT22;13395;50.752;4.268;2022-10-26T04:20:46;15.80;99.90
25482;DHT22;13395;50.752;4.268;2022-10-26T04:23:12;15.80;99.90
25482;DHT22;13395;50.752;4.268;2022-10-26T04:25:38;16.00;99.90
25482;DHT22;13395;50.752;4.268;2022-10-26T04:28:04;16.00;99.90
25482;DHT22;13395;50.752;4.268;2022-10-26T04:30:30;16.00;99.90
25482;DHT22;13395;50.752;4.268;2022-10-26T04:32:56;15.90;99.90
25482;DHT22;13395;50.752;4.268;2022-10-26T04:35:21;15.90;99.90
25482;DHT22;13395;50.752;4.268;2022-10-26T04:37:47;15.90;99.90
25482;DHT22;13395;50.752;4.268;2022-10-26T04:40:12;15.80;99.90
25482;DHT22;13395;50.752;4.268;2022-10-26T04:42:41;15.90;99.90
25482;DHT22;13395;50.752;4.268;2022-10-26T04:45:07;16.00;99.90
25482;DHT22;13395;50.752;4.268;2022-10-26T04:47:33;15.90;99.90
25482;DHT22;13395;50.752;4.268;2022-10-26T04:49:58;15.90;99.90
25482;DHT22;13395;50.752;4.268;2022-10-26T04:52:23;16.00;99.90
25482;DHT22;13395;50.752;4.268;2022-10-26T04:54:49;15.90;99.90
25482;DHT22;13395;50.752;4.268;2022-10-26T04:57:14;15.90;99.90
25482;DHT22;13395;50.752;4.268;2022-10-26T04:59:40;15.90;99.90
25482;DHT22;13395;50.752;4.268;2022-10-26T05:02:05;15.80;99.90
25482;DHT22;13395;50.752;4.268;2022-10-26T05:04:31;15.90;99.90
25482;DHT22;13395;50.752;4.268;2022-10-26T05:06:56;15.80;99.90
25482;DHT22;13395;50.752;4.268;2022-10-26T05:09:22;15.70;99.90
25482;DHT22;13395;50.752;4.268;2022-10-26T05:11:47;15.70;99.90
25482;DHT22;13395;50.752;4.268;2022-10-26T05:14:13;15.80;99.90
25482;DHT22;13395;50.752;4.268;2022-10-26T05:16:38;15.80;99.90
25482;DHT22;13395;50.752;4.268;2022-10-26T05:19:04;15.60;99.90
25482;DHT22;13395;50.752;4.268;2022-10-26T05:21:29;15.60;99.90
25482;DHT22;13395;50.752;4.268;2022-10-26T05:23:55;15.60;99.90
25482;DHT22;13395;50.752;4.268;2022-10-26T05:26:21;15.70;99.90
25482;DHT22;13395;50.752;4.268;2022-10-26T05:28:47;15.60;99.90
25482;DHT22;13395;50.752;4.268;2022-10-26T05:31:12;15.50;99.90
25482;DHT22;13395;50.752;4.268;2022-10-26T05:33:38;15.40;99.90
25482;DHT22;13395;50.752;4.268;2022-10-26T05:36:04;15.40;99.90
25482;DHT22;13395;50.752;4.268;2022-10-26T05:38:29;15.50;99.90
25482;DHT22;13395;50.752;4.268;2022-10-26T05:40:55;15.50;99.90
25482;DHT22;13395;50.752;4.268;2022-10-26T05:43:21;15.40;99.90
25482;DHT22;13395;50.752;4.268;2022-10-26T05:45:48;15.40;99.90
25482;DHT22;13395;50.752;4.268;2022-10-26T05:48:14;15.40;99.90
25482;DHT22;13395;50.752;4.268;2022-10-26T05:50:39;15.50;99.90
25482;DHT22;13395;50.752;4.268;2022-10-26T05:53:05;15.60;99.90
25482;DHT22;13395;50.752;4.268;2022-10-26T05:55:30;15.70;99.90
25482;DHT22;13395;50.752;4.268;2022-10-26T05:57:56;15.70;99.90
25482;DHT22;13395;50.752;4.268;2022-10-26T06:00:23;15.80;99.90
25482;DHT22;13395;50.752;4.268;2022-10-26T06:05:18;15.70;99.90
25482;DHT22;13395;50.752;4.268;2022-10-26T06:07:45;15.70;99.90
25482;DHT22;13395;50.752;4.268;2022-10-26T06:10:11;15.70;99.90
25482;DHT22;13395;50.752;4.268;2022-10-26T06:12:37;15.70;99.90
25482;DHT22;13395;50.752;4.268;2022-10-26T06:15:03;15.60;99.90
25482;DHT22;13395;50.752;4.268;2022-10-26T06:30:19;15.60;99.90
25482;DHT22;13395;50.752;4.268;2022-10-26T06:32:47;15.80;99.90
25482;DHT22;13395;50.752;4.268;2022-10-26T06:37:48;15.80;99.90
25482;DHT22;13395;50.752;4.268;2022-10-26T06:40:15;15.90;99.90
25482;DHT22;13395;50.752;4.268;2022-10-26T06:42:41;16.00;99.90
25482;DHT22;13395;50.752;4.268;2022-10-26T06:45:15;16.00;99.90
25482;DHT22;13395;50.752;4.268;2022-10-26T06:50:19;16.00;99.90
25482;DHT22;13395;50.752;4.268;2022-10-26T06:55:18;16.20;99.90
25482;DHT22;13395;50.752;4.268;2022-10-26T06:57:43;16.30;99.90
25482;DHT22;13395;50.752;4.268;2022-10-26T07:02:38;16.30;99.90
25482;DHT22;13395;50.752;4.268;2022-10-26T07:05:04;16.40;99.90
25482;DHT22;13395;50.752;4.268;2022-10-26T07:07:29;16.40;99.90
25482;DHT22;13395;50.752;4.268;2022-10-26T07:09:55;16.50;99.90
25482;DHT22;13395;50.752;4.268;2022-10-26T07:12:21;16.50;99.90
25482;DHT22;13395;50.752;4.268;2022-10-26T07:14:46;16.50;99.90
25482;DHT22;13395;50.752;4.268;2022-10-26T07:17:12;16.60;99.90
25482;DHT22;13395;50.752;4.268;2022-10-26T07:19:37;16.50;99.90
25482;DHT22;13395;50.752;4.268;2022-10-26T07:22:04;16.60;99.90
25482;DHT22;13395;50.752;4.268;2022-10-26T07:24:30;16.60;99.90
25482;DHT22;13395;50.752;4.268;2022-10-26T07:26:56;16.50;99.90
25482;DHT22;13395;50.752;4.268;2022-10-26T07:29:22;16.50;99.90
25482;DHT22;13395;50.752;4.268;2022-10-26T07:31:47;16.60;99.90
25482;DHT22;13395;50.752;4.268;2022-10-26T07:34:13;16.60;99.90
25482;DHT22;13395;50.752;4.268;2022-10-26T07:36:38;16.60;99.90
25482;DHT22;13395;50.752;4.268;2022-10-26T07:39:07;16.60;99.90
25482;DHT22;13395;50.752;4.268;2022-10-26T07:41:33;16.60;99.90
25482;DHT22;13395;50.752;4.268;2022-10-26T07:43:58;16.60;99.90
25482;DHT22;13395;50.752;4.268;2022-10-26T07:46:24;16.70;99.90
25482;DHT22;13395;50.752;4.268;2022-10-26T07:48:51;16.80;99.90
25482;DHT22;13395;50.752;4.268;2022-10-26T07:51:16;17.10;99.90
25482;DHT22;13395;50.752;4.268;2022-10-26T07:53:42;17.70;99.90
25482;DHT22;13395;50.752;4.268;2022-10-26T07:56:08;18.70;99.90
25482;DHT22;13395;50.752;4.268;2022-10-26T07:58:34;19.10;99.90
25482;DHT22;13395;50.752;4.268;2022-10-26T08:01:10;19.10;99.90
25482;DHT22;13395;50.752;4.268;2022-10-26T08:03:36;18.90;99.90
25482;DHT22;13395;50.752;4.268;2022-10-26T08:06:02;18.60;99.90
25482;DHT22;13395;50.752;4.268;2022-10-26T08:08:29;18.50;99.90
25482;DHT22;13395;50.752;4.268;2022-10-26T08:10:54;18.40;99.90
25482;DHT22;13395;50.752;4.268;2022-10-26T08:13:20;18.40;99.90
25482;DHT22;13395;50.752;4.268;2022-10-26T08:15:45;18.30;99.90
25482;DHT22;13395;50.752;4.268;2022-10-26T08:18:12;18.20;99.90
25482;DHT22;13395;50.752;4.268;2022-10-26T08:20:37;18.70;99.90
25482;DHT22;13395;50.752;4.268;2022-10-26T08:23:03;19.70;99.90
25482;DHT22;13395;50.752;4.268;2022-10-26T08:25:30;19.90;99.90
25482;DHT22;13395;50.752;4.268;2022-10-26T08:27:59;20.00;99.90
25482;DHT22;13395;50.752;4.268;2022-10-26T08:30:24;20.20;99.90
25482;DHT22;13395;50.752;4.268;2022-10-26T08:32:56;19.90;99.90
25482;DHT22;13395;50.752;4.268;2022-10-26T08:35:22;19.90;99.90
25482;DHT22;13395;50.752;4.268;2022-10-26T08:37:47;20.20;99.90
25482;DHT22;13395;50.752;4.268;2022-10-26T08:40:14;20.60;99.90
25482;DHT22;13395;50.752;4.268;2022-10-26T08:42:45;21.40;99.90
25482;DHT22;13395;50.752;4.268;2022-10-26T08:45:23;22.70;99.90
25482;DHT22;13395;50.752;4.268;2022-10-26T08:47:49;24.20;99.90
25482;DHT22;13395;50.752;4.268;2022-10-26T08:50:24;24.70;99.90
25482;DHT22;13395;50.752;4.268;2022-10-26T08:53:07;25.50;99.90
25482;DHT22;13395;50.752;4.268;2022-10-26T08:55:47;26.60;99.90
25482;DHT22;13395;50.752;4.268;2022-10-26T08:58:15;26.60;99.90
25482;DHT22;13395;50.752;4.268;2022-10-26T09:00:41;26.70;99.90
25482;DHT22;13395;50.752;4.268;2022-10-26T09:03:12;26.80;99.80
25482;DHT22;13395;50.752;4.268;2022-10-26T09:05:41;27.60;98.80
25482;DHT22;13395;50.752;4.268;2022-10-26T09:08:17;28.10;97.60
25482;DHT22;13395;50.752;4.268;2022-10-26T09:10:52;28.30;96.50
25482;DHT22;13395;50.752;4.268;2022-10-26T09:15:47;27.60;96.90
25482;DHT22;13395;50.752;4.268;2022-10-26T09:23:41;25.00;99.70
25482;DHT22;13395;50.752;4.268;2022-10-26T09:26:17;24.50;99.90
25482;DHT22;13395;50.752;4.268;2022-10-26T09:28:44;24.00;99.90
25482;DHT22;13395;50.752;4.268;2022-10-26T09:31:12;23.70;99.90
25482;DHT22;13395;50.752;4.268;2022-10-26T09:33:39;23.50;99.90
25482;DHT22;13395;50.752;4.268;2022-10-26T09:36:11;23.40;99.90
25482;DHT22;13395;50.752;4.268;2022-10-26T09:43:42;23.40;99.90
25482;DHT22;13395;50.752;4.268;2022-10-26T09:46:12;23.90;99.90
25482;DHT22;13395;50.752;4.268;2022-10-26T09:48:40;24.80;99.90
25482;DHT22;13395;50.752;4.268;2022-10-26T09:51:08;24.80;99.90
25482;DHT22;13395;50.752;4.268;2022-10-26T09:53:35;24.60;99.90
25482;DHT22;13395;50.752;4.268;2022-10-26T09:56:10;24.60;99.90
25482;DHT22;13395;50.752;4.268;2022-10-26T10:01:36;24.70;99.90
25482;DHT22;13395;50.752;4.268;2022-10-26T10:06:37;24.30;99.90
25482;DHT22;13395;50.752;4.268;2022-10-26T10:09:04;24.40;99.90
25482;DHT22;13395;50.752;4.268;2022-10-26T10:11:36;24.20;99.90
25482;DHT22;13395;50.752;4.268;2022-10-26T10:14:05;23.90;99.90
25482;DHT22;13395;50.752;4.268;2022-10-26T10:16:31;24.20;99.90
25482;DHT22;13395;50.752;4.268;2022-10-26T10:18:59;24.90;99.90
25482;DHT22;13395;50.752;4.268;2022-10-26T10:21:38;25.40;99.90
25482;DHT22;13395;50.752;4.268;2022-10-26T10:27:02;26.10;98.70
25482;DHT22;13395;50.752;4.268;2022-10-26T10:29:29;25.60;98.10
25482;DHT22;13395;50.752;4.268;2022-10-26T10:31:55;25.90;97.50
25482;DHT22;13395;50.752;4.268;2022-10-26T10:34:21;26.20;97.40
25482;DHT22;13395;50.752;4.268;2022-10-26T10:36:46;26.80;97.10
25482;DHT22;13395;50.752;4.268;2022-10-26T10:41:57;26.80;95.90
25482;DHT22;13395;50.752;4.268;2022-10-26T10:44:26;26.30;96.80
25482;DHT22;13395;50.752;4.268;2022-10-26T10:47:01;26.70;95.90
25482;DHT22;13395;50.752;4.268;2022-10-26T10:49:27;26.80;95.80
25482;DHT22;13395;50.752;4.268;2022-10-26T10:51:54;26.80;96.00
25482;DHT22;13395;50.752;4.268;2022-10-26T10:54:21;26.70;96.20
25482;DHT22;13395;50.752;4.268;2022-10-26T10:56:56;26.90;96.20
25482;DHT22;13395;50.752;4.268;2022-10-26T11:06:49;27.00;95.40
25482;DHT22;13395;50.752;4.268;2022-10-26T11:09:17;26.40;96.20
25482;DHT22;13395;50.752;4.268;2022-10-26T11:11:46;25.90;96.80
25482;DHT22;13395;50.752;4.268;2022-10-26T11:16:39;25.10;97.60
25482;DHT22;13395;50.752;4.268;2022-10-26T11:19:14;24.80;98.50
25482;DHT22;13395;50.752;4.268;2022-10-26T11:21:42;24.60;98.50
25482;DHT22;13395;50.752;4.268;2022-10-26T11:24:14;24.40;99.70
25482;DHT22;13395;50.752;4.268;2022-10-26T11:26:56;24.40;99.90
25482;DHT22;13395;50.752;4.268;2022-10-26T11:37:33;24.40;99.90
25482;DHT22;13395;50.752;4.268;2022-10-26T11:42:51;24.60;99.90
25482;DHT22;13395;50.752;4.268;2022-10-26T11:47:48;24.60;99.90
25482;DHT22;13395;50.752;4.268;2022-10-26T11:50:23;24.60;99.70
25482;DHT22;13395;50.752;4.268;2022-10-26T11:53:11;24.40;99.90
25482;DHT22;13395;50.752;4.268;2022-10-26T11:55:39;24.00;99.90
25482;DHT22;13395;50.752;4.268;2022-10-26T11:58:07;23.60;99.90
25482;DHT22;13395;50.752;4.268;2022-10-26T12:00:33;23.50;99.90
25482;DHT22;13395;50.752;4.268;2022-10-26T12:05:31;23.70;99.90
25482;DHT22;13395;50.752;4.268;2022-10-26T12:07:59;23.90;99.90
25482;DHT22;13395;50.752;4.268;2022-10-26T12:17:45;24.00;99.90
25482;DHT22;13395;50.752;4.268;2022-10-26T12:22:59;24.50;99.90
25482;DHT22;13395;50.752;4.268;2022-10-26T12:25:27;24.90;99.90
25482;DHT22;13395;50.752;4.268;2022-10-26T12:27:54;25.90;99.90
25482;DHT22;13395;50.752;4.268;2022-10-26T12:37:56;28.80;94.80
25482;DHT22;13395;50.752;4.268;2022-10-26T12:42:57;29.30;92.80
25482;DHT22;13395;50.752;4.268;2022-10-26T12:45:35;29.50;92.50
25482;DHT22;13395;50.752;4.268;2022-10-26T12:48:01;30.10;91.70
25482;DHT22;13395;50.752;4.268;2022-10-26T12:50:28;30.80;90.40
25482;DHT22;13395;50.752;4.268;2022-10-26T12:52:57;30.90;89.40
25482;DHT22;13395;50.752;4.268;2022-10-26T12:58:32;29.90;90.30
25482;DHT22;13395;50.752;4.268;2022-10-26T13:03:29;29.60;90.20
25482;DHT22;13395;50.752;4.268;2022-10-26T13:08:27;29.00;91.00
25482;DHT22;13395;50.752;4.268;2022-10-26T13:11:06;28.70;91.40
25482;DHT22;13395;50.752;4.268;2022-10-26T13:13:37;28.50;91.80
25482;DHT22;13395;50.752;4.268;2022-10-26T13:16:03;28.60;91.60
25482;DHT22;13395;50.752;4.268;2022-10-26T13:18:29;28.50;91.60
25482;DHT22;13395;50.752;4.268;2022-10-26T13:23:34;28.10;91.70
25482;DHT22;13395;50.752;4.268;2022-10-26T13:26:05;27.50;92.60
25482;DHT22;13395;50.752;4.268;2022-10-26T13:28:33;27.20;92.60
25482;DHT22;13395;50.752;4.268;2022-10-26T13:31:11;27.00;93.30
25482;DHT22;13395;50.752;4.268;2022-10-26T13:33:41;26.80;93.30
25482;DHT22;13395;50.752;4.268;2022-10-26T13:38:42;26.50;93.60
25482;DHT22;13395;50.752;4.268;2022-10-26T13:41:21;26.70;93.80
25482;DHT22;13395;50.752;4.268;2022-10-26T13:43:50;26.70;93.80
25482;DHT22;13395;50.752;4.268;2022-10-26T13:46:26;26.90;93.80
25482;DHT22;13395;50.752;4.268;2022-10-26T13:48:53;27.00;93.90
25482;DHT22;13395;50.752;4.268;2022-10-26T13:51:23;27.10;94.00
25482;DHT22;13395;50.752;4.268;2022-10-26T13:54:00;26.60;93.70
25482;DHT22;13395;50.752;4.268;2022-10-26T13:56:29;26.20;94.20
25482;DHT22;13395;50.752;4.268;2022-10-26T13:58:57;25.90;94.60
25482;DHT22;13395;50.752;4.268;2022-10-26T14:01:24;25.60;95.40
25482;DHT22;13395;50.752;4.268;2022-10-26T14:03:50;25.60;96.40
25482;DHT22;13395;50.752;4.268;2022-10-26T14:08:41;25.40;96.30
25482;DHT22;13395;50.752;4.268;2022-10-26T14:11:09;25.10;96.90
25482;DHT22;13395;50.752;4.268;2022-10-26T14:13:36;24.70;97.30
25482;DHT22;13395;50.752;4.268;2022-10-26T14:16:05;24.30;97.60
25482;DHT22;13395;50.752;4.268;2022-10-26T14:18:31;24.10;98.50
25482;DHT22;13395;50.752;4.268;2022-10-26T14:20:58;23.90;98.90
25482;DHT22;13395;50.752;4.268;2022-10-26T14:23:34;23.70;99.20
25482;DHT22;13395;50.752;4.268;2022-10-26T14:26:00;23.60;99.70
25482;DHT22;13395;50.752;4.268;2022-10-26T14:28:30;23.50;99.90
25482;DHT22;13395;50.752;4.268;2022-10-26T14:31:41;23.30;99.90
25482;DHT22;13395;50.752;4.268;2022-10-26T14:33:42;23.40;99.90
25482;DHT22;13395;50.752;4.268;2022-10-26T14:36:07;23.30;99.90
25482;DHT22;13395;50.752;4.268;2022-10-26T14:38:35;23.30;99.90
25482;DHT22;13395;50.752;4.268;2022-10-26T14:41:02;23.40;99.90
25482;DHT22;13395;50.752;4.268;2022-10-26T14:43:28;23.20;99.90
25482;DHT22;13395;50.752;4.268;2022-10-26T14:45:54;23.20;99.90
25482;DHT22;13395;50.752;4.268;2022-10-26T14:48:26;23.20;99.90
25482;DHT22;13395;50.752;4.268;2022-10-26T14:51:01;23.10;99.90
25482;DHT22;13395;50.752;4.268;2022-10-26T14:53:32;23.00;99.90
25482;DHT22;13395;50.752;4.268;2022-10-26T14:55:58;22.90;99.90
25482;DHT22;13395;50.752;4.268;2022-10-26T14:58:31;22.80;99.90
25482;DHT22;13395;50.752;4.268;2022-10-26T15:01:13;22.80;99.90
25482;DHT22;13395;50.752;4.268;2022-10-26T15:03:39;22.70;99.90
25482;DHT22;13395;50.752;4.268;2022-10-26T15:06:20;22.70;99.90
25482;DHT22;13395;50.752;4.268;2022-10-26T15:08:46;22.60;99.90
25482;DHT22;13395;50.752;4.268;2022-10-26T15:11:12;22.50;99.90
25482;DHT22;13395;50.752;4.268;2022-10-26T15:13:39;22.40;99.90
25482;DHT22;13395;50.752;4.268;2022-10-26T15:16:28;22.30;99.90
25482;DHT22;13395;50.752;4.268;2022-10-26T15:19:12;22.30;99.90
25482;DHT22;13395;50.752;4.268;2022-10-26T15:21:46;22.30;99.90
25482;DHT22;13395;50.752;4.268;2022-10-26T15:24:32;22.20;99.90
25482;DHT22;13395;50.752;4.268;2022-10-26T15:26:59;22.30;99.90
25482;DHT22;13395;50.752;4.268;2022-10-26T15:29:35;22.30;99.90
25482;DHT22;13395;50.752;4.268;2022-10-26T15:32:02;22.20;99.90
25482;DHT22;13395;50.752;4.268;2022-10-26T15:34:27;22.10;99.90
25482;DHT22;13395;50.752;4.268;2022-10-26T15:36:53;22.10;99.90
25482;DHT22;13395;50.752;4.268;2022-10-26T15:39:18;22.10;99.90
25482;DHT22;13395;50.752;4.268;2022-10-26T15:41:45;22.00;99.90
25482;DHT22;13395;50.752;4.268;2022-10-26T15:44:12;22.00;99.90
25482;DHT22;13395;50.752;4.268;2022-10-26T15:46:40;22.00;99.90
25482;DHT22;13395;50.752;4.268;2022-10-26T15:49:06;21.90;99.90
25482;DHT22;13395;50.752;4.268;2022-10-26T15:51:32;21.90;99.90
25482;DHT22;13395;50.752;4.268;2022-10-26T15:53:58;21.80;99.90
25482;DHT22;13395;50.752;4.268;2022-10-26T15:56:26;21.80;99.90
25482;DHT22;13395;50.752;4.268;2022-10-26T15:58:52;21.70;99.90
25482;DHT22;13395;50.752;4.268;2022-10-26T16:01:19;21.70;99.90
25482;DHT22;13395;50.752;4.268;2022-10-26T16:03:45;21.70;99.90
25482;DHT22;13395;50.752;4.268;2022-10-26T16:06:13;21.60;99.90
25482;DHT22;13395;50.752;4.268;2022-10-26T16:08:39;21.40;99.90
25482;DHT22;13395;50.752;4.268;2022-10-26T16:11:05;21.40;99.90
25482;DHT22;13395;50.752;4.268;2022-10-26T16:13:30;21.40;99.90
25482;DHT22;13395;50.752;4.268;2022-10-26T16:15:56;21.30;99.90
25482;DHT22;13395;50.752;4.268;2022-10-26T16:18:21;21.20;99.90
25482;DHT22;13395;50.752;4.268;2022-10-26T16:20:47;21.20;99.90
25482;DHT22;13395;50.752;4.268;2022-10-26T16:23:12;21.20;99.90
25482;DHT22;13395;50.752;4.268;2022-10-26T16:25:42;21.10;99.90
25482;DHT22;13395;50.752;4.268;2022-10-26T16:28:08;20.90;99.90
25482;DHT22;13395;50.752;4.268;2022-10-26T16:30:34;20.90;99.90
25482;DHT22;13395;50.752;4.268;2022-10-26T16:33:01;21.00;99.90
25482;DHT22;13395;50.752;4.268;2022-10-26T16:35:26;21.00;99.90
25482;DHT22;13395;50.752;4.268;2022-10-26T16:37:52;21.00;99.90
25482;DHT22;13395;50.752;4.268;2022-10-26T16:40:17;21.00;99.90
25482;DHT22;13395;50.752;4.268;2022-10-26T16:42:44;20.90;99.90
25482;DHT22;13395;50.752;4.268;2022-10-26T16:45:10;20.90;99.90
25482;DHT22;13395;50.752;4.268;2022-10-26T16:47:36;20.70;99.90
25482;DHT22;13395;50.752;4.268;2022-10-26T16:50:04;20.60;99.90
25482;DHT22;13395;50.752;4.268;2022-10-26T16:52:29;20.50;99.90
25482;DHT22;13395;50.752;4.268;2022-10-26T16:54:55;20.60;99.90
25482;DHT22;13395;50.752;4.268;2022-10-26T16:57:21;20.50;99.90
25482;DHT22;13395;50.752;4.268;2022-10-26T16:59:46;20.40;99.90
25482;DHT22;13395;50.752;4.268;2022-10-26T17:02:12;20.40;99.90
25482;DHT22;13395;50.752;4.268;2022-10-26T17:04:38;20.30;99.90
25482;DHT22;13395;50.752;4.268;2022-10-26T17:07:03;20.20;99.90
25482;DHT22;13395;50.752;4.268;2022-10-26T17:09:28;20.10;99.90
25482;DHT22;13395;50.752;4.268;2022-10-26T17:11:54;20.10;99.90
25482;DHT22;13395;50.752;4.268;2022-10-26T17:14:20;20.00;99.90
25482;DHT22;13395;50.752;4.268;2022-10-26T17:16:45;20.00;99.90
25482;DHT22;13395;50.752;4.268;2022-10-26T17:19:11;19.90;99.90
25482;DHT22;13395;50.752;4.268;2022-10-26T17:21:36;19.90;99.90
25482;DHT22;13395;50.752;4.268;2022-10-26T17:24:02;19.80;99.90
25482;DHT22;13395;50.752;4.268;2022-10-26T17:26:28;19.80;99.90
25482;DHT22;13395;50.752;4.268;2022-10-26T17:28:54;19.70;99.90
25482;DHT22;13395;50.752;4.268;2022-10-26T17:31:21;19.70;99.90
25482;DHT22;13395;50.752;4.268;2022-10-26T17:33:46;19.70;99.90
25482;DHT22;13395;50.752;4.268;2022-10-26T17:36:16;19.70;99.90
25482;DHT22;13395;50.752;4.268;2022-10-26T17:38:44;19.70;99.90
25482;DHT22;13395;50.752;4.268;2022-10-26T17:41:10;19.70;99.90
25482;DHT22;13395;50.752;4.268;2022-10-26T17:43:37;19.80;99.90
25482;DHT22;13395;50.752;4.268;2022-10-26T17:46:09;19.80;99.90
25482;DHT22;13395;50.752;4.268;2022-10-26T17:48:35;19.80;99.90
25482;DHT22;13395;50.752;4.268;2022-10-26T17:51:01;19.80;99.90
25482;DHT22;13395;50.752;4.268;2022-10-26T17:53:27;19.80;99.90
25482;DHT22;13395;50.752;4.268;2022-10-26T17:56:12;19.70;99.90